Flight Track Log - Related Links

Times and Time Zones

All times are in EDT time to prevent confusion due to time zone crossing. See the PDT4158 flight status page for this flight to view local times or setup timezone preferences in your user account.

Time Position Orientation Groundspeed Altitude Reporting Facility
EDT Latitude Longitude Course Direction KTS MPH feet Rate Location/Type
Sun 10:47:39 PM 35.1950 -80.9356 71° East 143 165 1,300  Level Atlanta Center
Sun 10:48:46 PM 35.1750 -80.8881 117° Southeast 155 178 2,700 1,228 Climbing Atlanta Center
Sun 10:49:46 PM 35.1736 -80.8322 92° East 170 196 3,900 1,096 Climbing Atlanta Center
Sun 10:50:00 PM 35.2833 -80.6779 90° East  Level FlightAware Approximate
Sun 10:50:41 PM 35.1761 -80.7736 87° East 194 223 4,800  Level Atlanta Center
Sun 10:51:00 PM 35.3068 -80.5913 64° Northeast  Level FlightAware Approximate
Sun 10:51:42 PM 35.1889 -80.7069 77° East 224 258 5,600  Level Atlanta Center
Sun 10:52:00 PM 35.3342 -80.5044 71° East  Level FlightAware Approximate
Sun 10:52:49 PM 35.2247 -80.6394 57° Northeast 211 243 7,000  Level Atlanta Center
Sun 10:53:50 PM 35.2758 -80.6069 27° Northeast 191 220 8,100 992 Climbing Atlanta Center
Sun 10:54:50 PM 35.3208 -80.5719 32° Northeast 199 229 9,000 446 Climbing Atlanta Center
Sun 10:55:51 PM 35.3783 -80.5339 28° Northeast 245 282 9,000  Level Atlanta Center
Sun 10:56:52 PM 35.4394 -80.4878 32° Northeast 268 308 9,000  Level Atlanta Center
Sun 11:10:02 PM 36.2947 -79.8622 27° Northeast 282 325 9,000  Level Washington Center
Sun 11:11:00 PM 36.1445 -79.6788 25° Northeast  Level FlightAware Approximate
Sun 11:11:02 PM 36.3697 -79.8069 31° Northeast 290 334 9,000  Level Washington Center
Sun 11:12:00 PM 36.4361 -79.7564 31° Northeast 282 325 9,000  Level Washington Center
Sun 11:12:00 PM 36.2135 -79.6389 25° Northeast  Level FlightAware Approximate
Sun 11:13:00 PM 36.2825 -79.5989 25° Northeast  Level FlightAware Approximate
Sun 11:13:00 PM 36.5006 -79.7081 31° Northeast 282 325 9,000  Level Washington Center
Sun 11:14:00 PM 36.3514 -79.5589 25° Northeast  Level FlightAware Approximate
Sun 11:14:02 PM 36.5669 -79.6600 30° Northeast 282 325 9,000  Level Washington Center
Sun 11:15:00 PM 36.6269 -79.6139 32° Northeast 282 325 9,000  Level Washington Center
Sun 11:15:00 PM 36.4193 -79.5163 27° Northeast  Level FlightAware Approximate
Sun 11:16:02 PM 36.6889 -79.5653 32° Northeast 277 319 9,000  Level Washington Center
Sun 11:17:03 PM 36.7553 -79.5169 30° Northeast 277 319 9,000  Level Washington Center
Sun 11:18:02 PM 36.8194 -79.4683 31° Northeast 277 319 9,000  Level Washington Center
Sun 11:19:01 PM 36.8900 -79.4147 31° Northeast 277 319 9,000  Level Washington Center
Sun 11:20:00 PM 36.9561 -79.3658 31° Northeast 277 319 9,000  Level Washington Center
Sun 11:21:02 PM 37.0203 -79.3169 31° Northeast 272 313 9,000  Level Washington Center
Sun 11:22:02 PM 37.0844 -79.2681 31° Northeast 272 313 9,000  Level Washington Center
Sun 11:23:02 PM 37.1442 -79.2239 31° Northeast 272 313 9,000  Level Washington Center
Sun 11:24:02 PM 37.2061 -79.1747 32° Northeast 272 313 9,000  Level Washington Center
Sun 11:27:50 PM 37.4500 -78.9833 29° Northeast 273 314 9,000  Level Potomac TRACON
Sun 11:28:44 PM 37.5167 -78.9333 31° Northeast 274 315 9,000  Level Potomac TRACON
Sun 11:29:44 PM 37.5833 -78.8833 31° Northeast 274 315 9,000  Level Potomac TRACON
Sun 11:30:44 PM 37.6500 -78.8333 31° Northeast 269 310 9,000 -99 Level Potomac TRACON
Sun 11:31:45 PM 37.7167 -78.7833 31° Northeast 264 304 8,800 -1,134 Descending Potomac TRACON
Sun 11:32:51 PM 37.7833 -78.7333 31° Northeast 273 314 6,600 -1,905 Descending Potomac TRACON
Sun 11:33:00 PM 37.7355 -78.7485 29° Northeast  Level FlightAware Approximate
Sun 11:33:51 PM 37.8500 -78.6833 31° Northeast 269 310 4,800  Level Potomac TRACON
Sun 11:34:51 PM 37.9000 -78.6333 38° Northeast 232 267 3,900 -750 Descending Potomac TRACON
Sun 11:35:51 PM 37.9500 -78.6000 28° Northeast 235 270 3,300 -600 Descending Potomac TRACON

Login

Don't have an account? Register now (free) for customized features, flight alerts, and more!